createdAt,value
2023-01-30T04:12:36.232Z,9.63
2023-01-30T04:15:06.295Z,8.47
2023-01-30T04:17:48.399Z,8.50
2023-01-30T04:20:31.783Z,9.37
2023-01-30T04:23:00.033Z,9.53
2023-01-30T04:25:30.062Z,10.33
2023-01-30T04:28:00.373Z,9.90
2023-01-30T04:30:33.464Z,10.03
2023-01-30T04:33:27.800Z,9.33
2023-01-30T04:35:57.237Z,10.20
2023-01-30T04:38:26.414Z,10.43
2023-01-30T04:40:56.471Z,10.33
2023-01-30T04:43:30.029Z,10.53
2023-01-30T04:46:04.042Z,9.30
2023-01-30T04:48:32.406Z,9.23
2023-01-30T04:51:02.676Z,9.63
2023-01-30T04:53:31.097Z,10.10
2023-01-30T04:55:59.289Z,9.20
2023-01-30T04:58:29.419Z,8.80
2023-01-30T05:00:57.698Z,9.73
2023-01-30T05:03:26.008Z,8.37
2023-01-30T05:05:54.227Z,8.17
2023-01-30T05:08:22.439Z,9.30
2023-01-30T05:10:50.713Z,8.40
2023-01-30T05:13:18.914Z,7.47
2023-01-30T05:15:48.535Z,8.13
2023-01-30T05:18:16.749Z,8.03
2023-01-30T05:20:44.949Z,8.03
2023-01-30T05:23:13.182Z,8.57
2023-01-30T05:25:41.359Z,7.93
2023-01-30T05:28:09.649Z,6.83
2023-01-30T05:30:38.532Z,7.27
2023-01-30T05:33:08.265Z,8.30
2023-01-30T05:35:36.483Z,8.10
2023-01-30T05:38:04.746Z,7.60
2023-01-30T05:40:32.912Z,7.93
2023-01-30T05:43:01.182Z,7.63
2023-01-30T05:45:29.400Z,7.37
2023-01-30T05:48:01.320Z,8.23
2023-01-30T05:50:32.421Z,7.63
2023-01-30T05:53:00.714Z,7.97
2023-01-30T05:55:28.932Z,7.87
2023-01-30T05:57:57.106Z,8.03
2023-01-30T06:00:25.389Z,8.93
2023-01-30T06:02:53.637Z,8.40
2023-01-30T06:05:22.099Z,9.47
2023-01-30T06:07:51.786Z,8.20
2023-01-30T06:10:20.197Z,7.77
2023-01-30T06:12:48.419Z,9.20
2023-01-30T06:15:17.050Z,7.70
2023-01-30T06:17:45.499Z,7.43
2023-01-30T06:20:14.212Z,7.43
2023-01-30T06:22:42.476Z,8.03
2023-01-30T06:25:12.668Z,8.50
2023-01-30T06:27:40.844Z,8.37
2023-01-30T06:30:10.569Z,7.10
2023-01-30T06:32:38.767Z,8.20
2023-01-30T06:35:07.695Z,7.67
2023-01-30T06:37:37.751Z,7.97
2023-01-30T06:40:06.842Z,9.37
2023-01-30T06:42:36.483Z,8.40
2023-01-30T06:45:05.578Z,8.23
2023-01-30T06:47:33.855Z,8.87
2023-01-30T06:50:02.113Z,8.23
2023-01-30T06:52:30.359Z,8.57
2023-01-30T06:54:58.573Z,6.90
2023-01-30T06:57:26.810Z,7.73
2023-01-30T06:59:56.380Z,8.17
2023-01-30T07:02:24.739Z,8.40
2023-01-30T07:04:52.939Z,8.43
2023-01-30T07:07:21.148Z,9.40
2023-01-30T07:10:05.810Z,8.47
2023-01-30T07:12:36.234Z,11.17
2023-01-30T07:15:07.636Z,12.57
2023-01-30T07:17:35.920Z,13.83
2023-01-30T07:20:04.720Z,9.10
2023-01-30T07:22:32.911Z,9.07
2023-01-30T07:25:01.113Z,9.90
2023-01-30T07:27:29.311Z,8.70
2023-01-30T07:29:57.508Z,9.83
2023-01-30T07:32:27.266Z,8.80
2023-01-30T07:34:55.466Z,9.53
2023-01-30T07:37:23.767Z,9.00
2023-01-30T07:39:52.009Z,11.23
2023-01-30T07:42:20.214Z,9.53
2023-01-30T07:44:48.458Z,11.87
2023-01-30T07:47:16.664Z,10.37
2023-01-30T07:49:46.257Z,14.30
2023-01-30T07:52:14.881Z,12.00
2023-01-30T07:54:43.083Z,10.17
2023-01-30T07:57:11.285Z,10.17
2023-01-30T07:59:39.498Z,10.10
2023-01-30T08:02:07.857Z,10.47
2023-01-30T08:04:36.133Z,10.60
2023-01-30T08:07:05.811Z,10.57
2023-01-30T08:09:34.013Z,10.70
2023-01-30T08:12:02.217Z,11.50
2023-01-30T08:14:30.654Z,11.93
2023-01-30T08:16:59.238Z,11.40
2023-01-30T08:19:27.504Z,11.17
2023-01-30T08:21:55.713Z,12.17
2023-01-30T08:24:25.383Z,10.33
2023-01-30T08:26:53.670Z,12.30
2023-01-30T08:29:21.887Z,11.47
2023-01-30T08:31:50.267Z,11.47
2023-01-30T08:34:18.468Z,11.87
2023-01-30T08:36:46.749Z,12.00
2023-01-30T08:39:15.120Z,12.47
2023-01-30T08:41:44.826Z,12.20
2023-01-30T08:44:13.449Z,13.17
2023-01-30T08:46:41.823Z,13.53
2023-01-30T08:49:10.067Z,14.60
2023-01-30T08:51:38.877Z,12.93
2023-01-30T08:54:08.676Z,13.17
2023-01-30T08:56:37.157Z,12.97
2023-01-30T08:59:07.846Z,12.93
2023-01-30T09:01:38.156Z,14.17
2023-01-30T09:04:06.694Z,13.53
2023-01-30T09:06:35.327Z,14.70
2023-01-30T09:09:03.591Z,15.07
2023-01-30T09:11:31.839Z,15.20
2023-01-30T09:14:00.129Z,15.80
2023-01-30T09:16:29.781Z,15.07
2023-01-30T09:18:58.046Z,14.90
2023-01-30T09:21:26.221Z,15.73
2023-01-30T09:23:57.609Z,14.43
2023-01-30T09:26:25.853Z,14.83
2023-01-30T09:28:54.552Z,14.43
2023-01-30T09:31:22.916Z,15.47
2023-01-30T09:33:52.668Z,15.90
2023-01-30T09:36:20.969Z,15.33
2023-01-30T09:38:49.190Z,14.33
2023-01-30T09:41:40.341Z,15.33
2023-01-30T09:44:22.306Z,15.40
2023-01-30T09:46:57.270Z,14.03
2023-01-30T09:49:39.548Z,14.33
2023-01-30T09:52:24.903Z,12.50
2023-01-30T09:55:00.279Z,13.80
2023-01-30T09:57:28.720Z,13.23
2023-01-30T10:00:03.722Z,20.03
2023-01-30T10:02:48.618Z,14.07
2023-01-30T10:05:18.541Z,14.73
2023-01-30T10:08:02.764Z,13.70
2023-01-30T10:10:45.074Z,14.23
2023-01-30T10:13:31.450Z,13.43
2023-01-30T10:16:05.656Z,12.50
2023-01-30T10:18:59.540Z,14.40
2023-01-30T10:21:38.256Z,12.93
2023-01-30T10:24:26.240Z,13.57
2023-01-30T10:26:55.499Z,13.67
2023-01-30T10:29:31.449Z,13.53
2023-01-30T10:32:04.404Z,14.20
2023-01-30T10:34:35.869Z,13.73
2023-01-30T10:37:10.578Z,14.47
2023-01-30T10:39:55.517Z,13.67
2023-01-30T10:42:30.617Z,15.07
2023-01-30T10:45:07.407Z,13.17
2023-01-30T10:47:49.028Z,13.33
2023-01-30T10:50:20.301Z,13.70
2023-01-30T10:52:58.833Z,14.17
2023-01-30T10:55:37.903Z,13.80
2023-01-30T10:58:15.404Z,14.67
2023-01-30T11:00:48.113Z,15.13
2023-01-30T11:03:34.921Z,14.27
2023-01-30T11:06:07.550Z,13.90
2023-01-30T11:08:37.608Z,14.30
2023-01-30T11:11:29.031Z,16.03
2023-01-30T11:14:05.073Z,14.13
2023-01-30T11:16:43.363Z,14.77
2023-01-30T11:19:21.681Z,14.53
2023-01-30T11:21:52.436Z,13.83
2023-01-30T11:24:24.283Z,12.97
2023-01-30T11:26:53.626Z,13.87
2023-01-30T11:29:29.519Z,11.90
2023-01-30T11:32:02.766Z,13.90
2023-01-30T11:34:31.138Z,12.73
2023-01-30T11:37:16.156Z,13.03
2023-01-30T11:39:53.184Z,13.97
2023-01-30T11:42:32.141Z,13.40
2023-01-30T11:45:17.101Z,11.77
2023-01-30T11:48:04.582Z,12.70
2023-01-30T11:50:43.474Z,12.50
2023-01-30T11:53:27.583Z,11.30
2023-01-30T11:56:06.375Z,12.77
2023-01-30T11:58:39.700Z,13.53
2023-01-30T12:01:11.202Z,12.97
2023-01-30T12:03:48.637Z,12.50
2023-01-30T12:06:24.584Z,12.23
2023-01-30T12:08:55.457Z,11.20
2023-01-30T12:11:33.411Z,11.17
2023-01-30T12:14:15.989Z,12.20
2023-01-30T12:17:01.632Z,11.87
2023-01-30T12:19:41.211Z,13.67
2023-01-30T12:22:20.442Z,13.30
2023-01-30T12:24:59.245Z,10.57
2023-01-30T12:27:45.811Z,14.17
2023-01-30T12:30:24.556Z,13.87
2023-01-30T12:32:57.722Z,12.00
2023-01-30T12:35:35.760Z,13.43
2023-01-30T12:38:10.817Z,12.00
2023-01-30T12:40:47.740Z,14.00
2023-01-30T12:43:53.603Z,12.47
2023-01-30T12:46:36.706Z,12.87
2023-01-30T12:49:30.263Z,13.03
2023-01-30T12:52:31.228Z,13.87
2023-01-30T12:55:07.777Z,13.40
2023-01-30T12:57:43.559Z,14.10
2023-01-30T13:00:30.415Z,14.23
2023-01-30T13:03:30.453Z,14.63
2023-01-30T13:06:10.201Z,16.47
2023-01-30T13:08:52.268Z,14.43
2023-01-30T13:11:39.206Z,13.00
2023-01-30T13:14:14.308Z,14.50
2023-01-30T13:16:57.933Z,13.93
2023-01-30T13:19:40.702Z,13.13
2023-01-30T13:22:17.976Z,14.20
2023-01-30T13:24:58.815Z,14.17
2023-01-30T13:27:29.690Z,13.73
2023-01-30T13:30:00.386Z,14.50
2023-01-30T13:32:38.289Z,14.23
2023-01-30T13:35:15.504Z,13.27
2023-01-30T13:37:46.382Z,13.83
2023-01-30T13:40:19.525Z,14.63
2023-01-30T13:42:52.077Z,13.50
2023-01-30T13:45:24.605Z,13.53
2023-01-30T13:48:05.913Z,15.77
2023-01-30T13:50:58.966Z,16.40
2023-01-30T13:53:31.292Z,16.37
2023-01-30T13:56:16.300Z,14.87
2023-01-30T13:58:59.749Z,16.63
2023-01-30T14:02:08.348Z,16.53
2023-01-30T14:04:49.042Z,17.50
2023-01-30T14:07:30.045Z,19.43
2023-01-30T14:10:13.755Z,19.17
2023-01-30T14:12:45.093Z,19.30
2023-01-30T14:15:25.576Z,18.63
2023-01-30T14:18:02.833Z,20.17
2023-01-30T14:20:34.963Z,20.70
2023-01-30T14:23:05.529Z,20.43
2023-01-30T14:25:52.213Z,21.37
2023-01-30T14:28:54.684Z,21.93
2023-01-30T14:32:04.007Z,23.23
2023-01-30T14:34:43.165Z,20.00
2023-01-30T14:37:47.756Z,18.70
2023-01-30T14:40:34.748Z,18.30
2023-01-30T14:43:48.500Z,19.57
2023-01-30T14:46:54.596Z,20.03
2023-01-30T14:49:32.385Z,17.73
2023-01-30T14:52:01.313Z,20.57
2023-01-30T14:54:50.841Z,19.87
2023-01-30T14:57:22.952Z,20.67
2023-01-30T15:00:14.243Z,18.93
2023-01-30T15:02:48.717Z,17.40
2023-01-30T15:05:21.507Z,18.30
2023-01-30T15:07:52.951Z,18.57
2023-01-30T15:10:40.903Z,20.40
2023-01-30T15:13:37.474Z,19.77
2023-01-30T15:16:29.119Z,18.73
2023-01-30T15:19:15.908Z,19.47
2023-01-30T15:21:54.167Z,19.90
2023-01-30T15:24:53.542Z,18.90
2023-01-30T15:27:30.912Z,18.87
2023-01-30T15:30:17.088Z,19.37
2023-01-30T15:32:46.238Z,18.73
2023-01-30T15:35:24.796Z,19.87
2023-01-30T15:37:54.067Z,20.80
2023-01-30T15:40:25.599Z,21.33
2023-01-30T15:43:14.352Z,18.43
2023-01-30T15:45:53.740Z,18.80
2023-01-30T15:48:39.494Z,19.10
2023-01-30T15:51:13.595Z,18.80
2023-01-30T15:53:44.666Z,19.30
2023-01-30T15:56:19.805Z,19.53
2023-01-30T15:58:50.304Z,19.77
2023-01-30T16:01:21.501Z,18.47
2023-01-30T16:03:51.197Z,18.33
2023-01-30T16:06:25.006Z,17.70
2023-01-30T16:08:58.231Z,16.80
2023-01-30T16:11:40.643Z,17.93
2023-01-30T16:14:14.067Z,19.10
2023-01-30T16:16:46.734Z,17.47
2023-01-30T16:19:22.196Z,17.93
2023-01-30T16:21:50.813Z,19.27
2023-01-30T16:24:24.941Z,18.53
2023-01-30T16:26:57.332Z,16.87
2023-01-30T16:29:30.140Z,17.57
2023-01-30T16:31:58.795Z,18.73
2023-01-30T16:34:31.162Z,17.40
2023-01-30T16:37:05.444Z,16.10
2023-01-30T16:39:35.745Z,16.77
2023-01-30T16:42:19.931Z,16.90
2023-01-30T16:44:49.753Z,17.47
2023-01-30T16:47:25.784Z,17.63
2023-01-30T16:49:55.859Z,17.40
2023-01-30T16:52:27.092Z,15.80
2023-01-30T16:54:57.380Z,16.87
2023-01-30T16:57:36.368Z,16.57
2023-01-30T17:00:21.529Z,16.73
2023-01-30T17:02:53.997Z,16.30
2023-01-30T17:05:24.710Z,17.63
2023-01-30T17:07:54.130Z,18.23
2023-01-30T17:10:55.269Z,16.70
2023-01-30T17:13:42.099Z,19.23
2023-01-30T17:16:36.048Z,16.93
2023-01-30T17:19:04.329Z,16.97
2023-01-30T17:21:38.866Z,16.67
2023-01-30T17:24:07.888Z,16.93
2023-01-30T17:26:36.229Z,17.87
2023-01-30T17:29:05.004Z,15.83
2023-01-30T17:31:34.282Z,15.87
2023-01-30T17:34:03.963Z,16.50
2023-01-30T17:36:32.693Z,16.53
2023-01-30T17:39:01.031Z,15.43
2023-01-30T17:41:33.488Z,15.87
2023-01-30T17:44:01.822Z,16.13
2023-01-30T17:46:35.621Z,15.93
2023-01-30T17:49:05.679Z,14.17
2023-01-30T17:51:33.971Z,15.33
2023-01-30T17:54:02.244Z,15.20
2023-01-30T17:56:37.854Z,18.07
2023-01-30T17:59:08.576Z,16.13
2023-01-30T18:01:36.859Z,17.13
2023-01-30T18:04:06.575Z,18.33
2023-01-30T18:06:35.485Z,16.40
2023-01-30T18:09:04.699Z,16.93
2023-01-30T18:11:33.294Z,19.30
2023-01-30T18:14:01.605Z,18.77
2023-01-30T18:16:31.984Z,19.20
2023-01-30T18:19:03.741Z,17.20
2023-01-30T18:21:34.562Z,18.10
2023-01-30T18:24:02.989Z,16.03
2023-01-30T18:26:31.772Z,17.07
2023-01-30T18:29:00.266Z,16.50
2023-01-30T18:31:31.140Z,17.53
2023-01-30T18:33:59.811Z,15.57
2023-01-30T18:36:28.374Z,15.93
2023-01-30T18:38:58.157Z,14.93
2023-01-30T18:41:27.125Z,14.53
2023-01-30T18:43:56.718Z,13.50
2023-01-30T18:46:25.975Z,13.20
2023-01-30T18:48:55.493Z,13.13
2023-01-30T18:51:25.814Z,13.77
2023-01-30T18:53:54.977Z,13.97
2023-01-30T18:56:26.732Z,13.43
2023-01-30T18:58:56.465Z,14.00
2023-01-30T19:01:27.002Z,13.03
2023-01-30T19:03:56.025Z,14.77
2023-01-30T19:06:25.313Z,13.70
2023-01-30T19:08:53.568Z,14.07
2023-01-30T19:11:41.822Z,13.03
2023-01-30T19:14:10.494Z,13.57
2023-01-30T19:16:40.204Z,13.67
2023-01-30T19:19:09.309Z,13.77
2023-01-30T19:21:38.186Z,13.07
2023-01-30T19:24:07.801Z,13.57
2023-01-30T19:26:37.858Z,11.03
2023-01-30T19:29:06.343Z,13.13
2023-01-30T19:31:34.847Z,14.40
2023-01-30T19:34:06.226Z,12.93
2023-01-30T19:36:36.200Z,17.20
2023-01-30T19:39:06.449Z,14.67
2023-01-30T19:41:37.922Z,16.90
2023-01-30T19:44:09.455Z,15.30
2023-01-30T19:46:38.139Z,15.13
2023-01-30T19:49:06.621Z,14.63
2023-01-30T19:51:35.959Z,13.37
2023-01-30T19:54:06.525Z,15.80
2023-01-30T19:56:36.669Z,16.60
2023-01-30T19:59:06.690Z,15.63
2023-01-30T20:01:37.690Z,14.80
2023-01-30T20:04:06.431Z,16.03
2023-01-30T20:06:36.225Z,14.57
2023-01-30T20:09:06.390Z,15.63
2023-01-30T20:11:35.775Z,18.77
2023-01-30T20:14:05.446Z,15.77
2023-01-30T20:16:36.052Z,16.97
2023-01-30T20:19:06.317Z,16.60
2023-01-30T20:21:35.967Z,15.63
2023-01-30T20:24:04.949Z,14.93
2023-01-30T20:26:35.938Z,15.30
2023-01-30T20:29:05.104Z,13.73
2023-01-30T20:31:35.042Z,13.03
2023-01-30T20:34:05.406Z,12.90
2023-01-30T20:36:34.097Z,14.20
2023-01-30T20:39:04.324Z,12.73
2023-01-30T20:41:35.136Z,14.20
2023-01-30T20:44:03.979Z,13.30
2023-01-30T20:46:35.998Z,12.33
2023-01-30T20:49:04.381Z,12.37
2023-01-30T20:51:34.941Z,12.77
2023-01-30T20:54:05.933Z,12.53
2023-01-30T20:56:36.050Z,13.30
2023-01-30T20:59:05.599Z,13.20
2023-01-30T21:01:35.778Z,12.63
2023-01-30T21:04:06.970Z,14.03
2023-01-30T21:06:37.228Z,14.10
2023-01-30T21:09:15.305Z,13.27
2023-01-30T21:11:43.837Z,14.17
2023-01-30T21:14:12.230Z,13.83
2023-01-30T21:16:42.789Z,13.93
2023-01-30T21:19:14.545Z,13.77
2023-01-30T21:21:44.536Z,10.90
2023-01-30T21:24:14.550Z,13.23
2023-01-30T21:26:46.404Z,12.00
2023-01-30T21:29:16.047Z,11.67
2023-01-30T21:31:46.414Z,11.90
2023-01-30T21:34:15.025Z,11.60
2023-01-30T21:36:43.538Z,12.37
2023-01-30T21:39:32.072Z,12.30
2023-01-30T21:42:21.318Z,11.07
2023-01-30T21:44:49.641Z,9.30
2023-01-30T21:47:19.299Z,10.37
2023-01-30T21:49:47.572Z,10.57
2023-01-30T21:52:15.800Z,9.63
2023-01-30T21:54:44.036Z,8.97
2023-01-30T21:57:12.275Z,8.67
2023-01-30T21:59:40.748Z,8.10
2023-01-30T22:02:10.136Z,9.10
2023-01-30T22:04:40.103Z,9.17
2023-01-30T22:07:08.487Z,7.87
2023-01-30T22:09:36.729Z,8.87
2023-01-30T22:12:05.367Z,7.43
2023-01-30T22:14:36.382Z,7.53
2023-01-30T22:17:04.741Z,7.80
2023-01-30T22:19:35.808Z,8.10
2023-01-30T22:22:06.020Z,7.83
2023-01-30T22:24:34.232Z,8.53
2023-01-30T22:27:02.600Z,8.83
2023-01-30T22:29:30.807Z,9.30
2023-01-30T22:31:59.072Z,9.37
2023-01-30T22:34:27.354Z,8.63
2023-01-30T22:36:55.558Z,9.13
2023-01-30T22:39:25.301Z,8.23
2023-01-30T22:41:53.609Z,9.10
2023-01-30T22:44:21.945Z,9.17
2023-01-30T22:46:52.025Z,8.63
2023-01-30T22:49:20.345Z,9.13
2023-01-30T22:51:49.072Z,9.50
2023-01-30T22:54:17.412Z,9.07
2023-01-30T22:56:49.003Z,8.03
2023-01-30T22:59:17.560Z,9.00
2023-01-30T23:01:47.975Z,9.47
2023-01-30T23:04:18.883Z,10.30
